Time;durP1;ratioP1;P1;durP2;ratioP2;P2;SDS_P1;SDS_P2;PMS_P1;PMS_P2;Temp;Humidity;BMP_temperature;BMP_pressure;BME280_temperature;BME280_humidity;BME280_pressure;Samples;Min_cycle;Max_cycle;Signal;HPM_P1;HPM_P2
2023/03/04 04:02:26;;;;;;;3.03;2.30;;;17.10;44.60;;;;;;5014756;23;47316;-58
2023/03/04 04:04:51;;;;;;;2.70;2.38;;;17.10;44.60;;;;;;4925372;28;45194;-58
2023/03/04 04:07:17;;;;;;;2.43;2.23;;;17.10;44.60;;;;;;4941339;28;46132;-59
2023/03/04 04:09:43;;;;;;;2.33;2.13;;;17.10;44.60;;;;;;4943971;28;46754;-57
2023/03/04 04:12:08;;;;;;;2.25;2.05;;;17.10;44.60;;;;;;4943154;28;44980;-60
2023/03/04 04:14:34;;;;;;;2.53;2.33;;;17.00;44.60;;;;;;4961144;28;45435;-60
2023/03/04 04:16:59;;;;;;;2.40;2.17;;;17.00;44.60;;;;;;4960312;28;45390;-56
2023/03/04 04:19:25;;;;;;;2.50;2.30;;;17.00;44.60;;;;;;4950832;28;45471;-60
2023/03/04 04:21:50;;;;;;;2.50;2.27;;;17.00;44.60;;;;;;4921764;28;45606;-57
2023/03/04 04:24:16;;;;;;;2.23;2.03;;;17.00;44.60;;;;;;4964965;28;45600;-56
2023/03/04 04:26:42;;;;;;;2.80;2.47;;;17.00;44.60;;;;;;4962557;28;45579;-58
2023/03/04 04:29:08;;;;;;;2.67;2.47;;;17.00;44.60;;;;;;4944373;28;45395;-59
2023/03/04 04:31:33;;;;;;;2.90;2.60;;;17.00;44.60;;;;;;4945815;28;45096;-56
2023/03/04 04:33:59;;;;;;;2.60;2.30;;;17.00;44.60;;;;;;4954492;28;44933;-58
2023/03/04 04:36:24;;;;;;;2.47;2.28;;;17.00;44.60;;;;;;4963915;28;45379;-59
2023/03/04 04:38:50;;;;;;;2.53;2.33;;;17.00;44.60;;;;;;4946217;28;46274;-59
2023/03/04 04:41:18;;;;;;;3.30;2.30;;;17.00;44.60;;;;;;4946502;28;45959;-59
2023/03/04 04:43:44;;;;;;;2.67;2.38;;;17.00;44.60;;;;;;4948719;28;45333;-57
2023/03/04 04:46:09;;;;;;;2.60;2.40;;;16.90;44.70;;;;;;4962244;28;45220;-56
2023/03/04 04:48:35;;;;;;;2.35;2.05;;;16.90;44.60;;;;;;4947779;28;45191;-59
2023/03/04 04:51:00;;;;;;;2.47;2.15;;;16.90;44.60;;;;;;4962951;28;45477;-60
2023/03/04 04:53:26;;;;;;;2.27;1.97;;;16.90;44.60;;;;;;4964371;28;45507;-58
2023/03/04 04:55:52;;;;;;;2.70;2.40;;;16.90;44.60;;;;;;4940018;28;45862;-57
2023/03/04 04:58:17;;;;;;;3.10;2.27;;;16.90;44.70;;;;;;4964308;28;45230;-62
2023/03/04 05:00:43;;;;;;;2.53;2.33;;;16.90;44.60;;;;;;4945825;28;45435;-60
2023/03/04 05:03:08;;;;;;;2.25;2.05;;;16.90;44.70;;;;;;4961784;28;44907;-57
2023/03/04 05:05:34;;;;;;;2.20;1.90;;;16.90;44.70;;;;;;4963753;28;45004;-54
2023/03/04 05:07:59;;;;;;;2.50;2.30;;;16.90;44.70;;;;;;4964272;28;46795;-58
2023/03/04 05:10:25;;;;;;;3.03;2.53;;;16.90;44.70;;;;;;4934018;28;45513;-59
2023/03/04 05:12:50;;;;;;;2.38;2.17;;;16.90;44.70;;;;;;4958328;28;45945;-59
2023/03/04 05:15:16;;;;;;;2.30;2.10;;;16.90;44.70;;;;;;4969337;28;45580;-58
2023/03/04 05:17:42;;;;;;;2.25;2.00;;;16.80;44.70;;;;;;4964132;28;46026;-56
2023/03/04 05:20:09;;;;;;;2.40;2.20;;;16.80;44.70;;;;;;4962901;28;48766;-57
2023/03/04 05:22:35;;;;;;;2.30;2.00;;;16.80;44.70;;;;;;4946532;28;45358;-57
2023/03/04 05:25:00;;;;;;;2.78;2.25;;;16.80;44.70;;;;;;4965692;28;45542;-57
2023/03/04 05:27:26;;;;;;;2.55;2.35;;;16.80;44.70;;;;;;4965017;28;46370;-57
2023/03/04 05:29:52;;;;;;;2.57;2.33;;;16.80;44.70;;;;;;4948686;28;45567;-56
2023/03/04 05:32:18;;;;;;;2.40;2.20;;;16.80;44.70;;;;;;4948931;28;45260;-59
2023/03/04 05:34:44;;;;;;;2.20;2.00;;;16.80;44.70;;;;;;4965158;28;45611;-59
2023/03/04 05:37:09;;;;;;;2.53;2.27;;;16.70;44.70;;;;;;4945214;28;45904;-60
2023/03/04 05:39:35;;;;;;;2.55;2.35;;;16.70;44.70;;;;;;4963562;28;45257;-59
2023/03/04 05:42:00;;;;;;;2.33;2.13;;;16.70;44.70;;;;;;4966730;28;45708;-56
2023/03/04 05:44:26;;;;;;;2.33;2.13;;;16.70;44.70;;;;;;4951092;28;45401;-57
2023/03/04 05:46:51;;;;;;;2.87;2.40;;;16.70;44.70;;;;;;4968665;28;45192;-56
2023/03/04 05:49:17;;;;;;;2.33;2.10;;;16.70;44.70;;;;;;4944993;28;45398;-59
2023/03/04 05:51:42;;;;;;;2.28;2.08;;;16.70;44.70;;;;;;4967104;28;44802;-55
2023/03/04 05:54:08;;;;;;;2.35;2.10;;;16.70;44.70;;;;;;4963987;28;44947;-60
2023/03/04 05:56:33;;;;;;;2.50;2.28;;;16.70;44.70;;;;;;4965798;28;46425;-59
2023/03/04 05:58:59;;;;;;;2.47;2.27;;;16.70;44.70;;;;;;4964430;28;45332;-60
2023/03/04 06:01:25;;;;;;;2.40;2.20;;;16.70;45.30;;;;;;4965405;28;45636;-57
2023/03/04 06:03:50;;;;;;;2.72;2.15;;;16.70;44.70;;;;;;4944692;28;45231;-61
2023/03/04 06:06:16;;;;;;;2.30;2.10;;;16.70;44.70;;;;;;4965220;28;45361;-57
2023/03/04 06:08:42;;;;;;;2.30;2.10;;;16.70;44.80;;;;;;4948616;28;45641;-60
2023/03/04 06:11:07;;;;;;;2.60;2.30;;;16.60;44.70;;;;;;4936842;28;44985;-54
2023/03/04 06:13:33;;;;;;;2.50;2.23;;;16.60;44.80;;;;;;4963145;28;45205;-60
2023/03/04 06:15:59;;;;;;;2.40;2.20;;;16.60;44.80;;;;;;4944514;28;46108;-57
2023/03/04 06:18:24;;;;;;;2.57;2.20;;;16.60;44.80;;;;;;4963505;28;45242;-58
2023/03/04 06:20:50;;;;;;;2.30;2.00;;;16.60;44.80;;;;;;4946006;28;45574;-58
2023/03/04 06:23:16;;;;;;;2.38;2.15;;;16.60;44.80;;;;;;4966390;28;45590;-60
2023/03/04 06:25:41;;;;;;;2.47;2.27;;;16.60;44.80;;;;;;4918393;28;45418;-58
2023/03/04 06:28:07;;;;;;;2.50;2.27;;;16.60;44.80;;;;;;4965123;28;45327;-57
2023/03/04 06:30:32;;;;;;;2.23;2.03;;;16.60;44.80;;;;;;4952663;28;45598;-57
2023/03/04 06:32:58;;;;;;;2.90;2.35;;;16.60;44.80;;;;;;4947757;28;46044;-57
2023/03/04 06:35:24;;;;;;;2.30;2.10;;;16.60;45.40;;;;;;4965612;28;45697;-56
2023/03/04 06:37:49;;;;;;;2.37;2.17;;;16.60;44.80;;;;;;4962209;28;45590;-61
2023/03/04 06:40:15;;;;;;;2.40;2.20;;;16.50;44.80;;;;;;4932928;28;45571;-57
2023/03/04 06:42:41;;;;;;;2.40;2.20;;;16.60;44.80;;;;;;4938220;28;45202;-57
2023/03/04 06:45:07;;;;;;;2.50;2.30;;;16.60;44.80;;;;;;4963810;28;45869;-58
2023/03/04 06:47:32;;;;;;;2.47;2.28;;;16.50;44.80;;;;;;4944211;28;46153;-56
2023/03/04 06:49:58;;;;;;;2.60;2.37;;;16.50;44.80;;;;;;4935496;28;45276;-56
2023/03/04 06:52:23;;;;;;;2.37;2.17;;;16.60;44.90;;;;;;4952726;28;45247;-60
2023/03/04 06:54:49;;;;;;;2.55;2.22;;;16.50;44.80;;;;;;4953900;28;48591;-57
2023/03/04 06:57:15;;;;;;;2.45;2.25;;;16.50;44.80;;;;;;4932129;28;46455;-58
2023/03/04 06:59:40;;;;;;;2.50;2.13;;;16.50;44.80;;;;;;4946797;28;45545;-59
2023/03/04 07:02:06;;;;;;;2.30;2.10;;;16.50;44.80;;;;;;4961523;28;45665;-57
2023/03/04 07:04:31;;;;;;;2.37;2.17;;;16.40;44.80;;;;;;4935683;28;45430;-60
2023/03/04 07:06:57;;;;;;;2.33;2.13;;;16.50;44.80;;;;;;4958463;28;45314;-60
2023/03/04 07:09:22;;;;;;;2.40;2.03;;;16.50;44.80;;;;;;4962077;28;45518;-59
2023/03/04 07:11:48;;;;;;;2.53;2.10;;;16.40;44.80;;;;;;4960300;28;46051;-61
2023/03/04 07:14:14;;;;;;;3.00;2.30;;;16.40;44.80;;;;;;4963236;28;46285;-59
2023/03/04 07:16:39;;;;;;;2.30;2.10;;;16.50;44.90;;;;;;4916269;28;45138;-59
2023/03/04 07:19:05;;;;;;;2.55;2.00;;;16.40;44.80;;;;;;4962360;28;45238;-59
2023/03/04 07:21:30;;;;;;;2.58;2.30;;;16.50;44.90;;;;;;4932795;28;45325;-60
2023/03/04 07:23:56;;;;;;;2.20;2.00;;;16.40;44.90;;;;;;4963781;28;45969;-57
2023/03/04 07:26:21;;;;;;;2.73;2.20;;;16.50;44.90;;;;;;4949556;28;45339;-61
2023/03/04 07:28:47;;;;;;;2.63;2.27;;;16.40;44.80;;;;;;4959767;28;45090;-56
2023/03/04 07:31:20;;;;;;;2.35;2.03;;;16.40;44.80;;;;;;4963201;28;45555;-55
2023/03/04 07:33:46;;;;;;;2.58;2.13;;;16.40;44.90;;;;;;4916702;28;46672;-59
2023/03/04 07:36:13;;;;;;;2.22;2.03;;;16.40;44.80;;;;;;4962581;28;45256;-59
2023/03/04 07:38:43;;;;;;;2.15;1.95;;;16.40;44.90;;;;;;4931622;28;45482;-56
2023/03/04 07:41:08;;;;;;;2.13;1.90;;;16.40;44.90;;;;;;4961125;28;45861;-57
2023/03/04 07:43:34;;;;;;;2.33;2.13;;;16.40;44.80;;;;;;4964936;28;45225;-58
2023/03/04 07:46:00;;;;;;;2.53;2.20;;;16.40;44.80;;;;;;4962434;28;45200;-56
2023/03/04 07:48:26;;;;;;;2.50;2.30;;;16.40;44.80;;;;;;4958561;28;45496;-56
2023/03/04 07:51:02;;;;;;;2.30;2.10;;;16.40;44.80;;;;;;4945980;28;45372;-58
2023/03/04 07:53:27;;;;;;;2.40;2.20;;;16.40;44.80;;;;;;4965130;28;45028;-56
2023/03/04 07:55:53;;;;;;;2.83;2.50;;;16.30;44.80;;;;;;4961562;28;46275;-58
2023/03/04 07:58:18;;;;;;;2.40;2.00;;;16.40;44.80;;;;;;4961066;28;45254;-56
2023/03/04 08:00:44;;;;;;;2.33;2.13;;;16.40;44.80;;;;;;4962315;28;45226;-56
2023/03/04 08:03:09;;;;;;;2.85;2.30;;;16.40;44.80;;;;;;4947293;28;45709;-57
2023/03/04 08:05:38;;;;;;;2.37;2.17;;;16.40;44.80;;;;;;4949721;28;45800;-59
2023/03/04 08:08:22;;;;;;;2.40;2.20;;;16.30;44.70;;;;;;4949078;28;45635;-56
2023/03/04 08:10:47;;;;;;;2.10;1.87;;;16.30;44.80;;;;;;4959962;28;44748;-58
2023/03/04 08:13:13;;;;;;;2.40;2.20;;;16.30;44.70;;;;;;4946569;28;45927;-55
2023/03/04 08:15:39;;;;;;;2.47;2.28;;;16.30;44.80;;;;;;4948438;28;45469;-60
2023/03/04 08:18:05;;;;;;;2.30;2.08;;;16.30;44.80;;;;;;4945922;28;45309;-59
2023/03/04 08:20:30;;;;;;;2.33;2.13;;;16.30;44.80;;;;;;4961153;28;45196;-58
2023/03/04 08:22:56;;;;;;;2.00;1.80;;;16.30;44.80;;;;;;4960124;28;46290;-56
2023/03/04 08:25:21;;;;;;;2.23;2.03;;;16.30;44.80;;;;;;4965604;28;46503;-57
2023/03/04 08:27:47;;;;;;;2.60;2.35;;;16.30;44.80;;;;;;4961297;28;45633;-59
2023/03/04 08:30:12;;;;;;;1.90;1.70;;;16.30;44.70;;;;;;4945303;28;44765;-59
2023/03/04 08:32:38;;;;;;;2.47;2.10;;;16.30;44.80;;;;;;4945424;28;46506;-58
2023/03/04 08:35:04;;;;;;;2.40;2.20;;;16.30;44.80;;;;;;4960219;28;45195;-58
2023/03/04 08:37:30;;;;;;;2.50;2.28;;;16.30;44.70;;;;;;4930937;28;45270;-58
2023/03/04 08:39:55;;;;;;;2.30;2.10;;;16.30;44.80;;;;;;4960507;28;45596;-57
2023/03/04 08:42:23;;;;;;;2.23;2.03;;;16.30;44.70;;;;;;4956628;28;46672;-58
2023/03/04 08:44:48;;;;;;;2.27;2.07;;;16.30;44.80;;;;;;4959507;28;44954;-61
2023/03/04 08:47:14;;;;;;;2.10;1.90;;;16.30;44.70;;;;;;4943843;28;45265;-57
2023/03/04 08:49:39;;;;;;;2.20;2.00;;;16.30;44.70;;;;;;4960206;28;45270;-59
2023/03/04 08:52:05;;;;;;;1.80;1.70;;;16.30;44.80;;;;;;4928746;28;45305;-61
2023/03/04 08:54:30;;;;;;;2.37;2.17;;;16.20;44.70;;;;;;4942109;28;45363;-61
2023/03/04 08:56:56;;;;;;;2.37;2.17;;;16.20;44.70;;;;;;4946370;28;45626;-60
2023/03/04 08:59:22;;;;;;;2.45;2.25;;;16.20;44.70;;;;;;4921525;28;45628;-58
2023/03/04 09:01:47;;;;;;;2.30;2.10;;;16.20;44.70;;;;;;4947662;28;45448;-61
2023/03/04 09:04:13;;;;;;;2.13;1.87;;;16.20;44.80;;;;;;4960198;28;44653;-53
2023/03/04 09:06:38;;;;;;;2.03;1.83;;;16.20;44.80;;;;;;4958880;28;44955;-59
2023/03/04 09:09:04;;;;;;;2.53;2.30;;;16.20;44.80;;;;;;4944289;28;48587;-62
2023/03/04 09:11:29;;;;;;;2.10;1.90;;;16.20;44.80;;;;;;4966714;28;45237;-57
2023/03/04 09:13:55;;;;;;;2.20;2.00;;;16.20;44.80;;;;;;4932230;28;45575;-57
2023/03/04 09:16:20;;;;;;;2.30;2.10;;;16.20;44.80;;;;;;4965753;28;45290;-58
2023/03/04 09:18:46;;;;;;;2.03;1.90;;;16.20;44.80;;;;;;4949287;28;45557;-59
2023/03/04 09:21:13;;;;;;;2.00;1.70;;;16.20;44.80;;;;;;4931073;28;45501;-60
2023/03/04 09:23:38;;;;;;;2.30;2.10;;;16.20;44.80;;;;;;4962629;28;45621;-57
2023/03/04 09:26:21;;;;;;;2.20;2.00;;;16.20;44.80;;;;;;4928791;28;46025;-59
2023/03/04 09:28:55;;;;;;;2.57;2.03;;;16.20;44.90;;;;;;4960543;28;45278;-57
2023/03/04 09:31:21;;;;;;;2.30;2.03;;;16.20;44.90;;;;;;4962525;28;45355;-56
2023/03/04 09:33:46;;;;;;;2.10;1.85;;;16.10;44.80;;;;;;4945606;28;44837;-57
2023/03/04 09:36:12;;;;;;;2.33;2.00;;;16.10;44.80;;;;;;4958659;28;45626;-59
2023/03/04 09:38:38;;;;;;;2.47;2.15;;;16.20;44.80;;;;;;4947783;28;46147;-57
2023/03/04 09:41:08;;;;;;;2.27;2.07;;;16.10;44.80;;;;;;4943206;28;46639;-58
2023/03/04 09:43:34;;;;;;;2.10;1.90;;;16.10;44.80;;;;;;4931307;28;44969;-57
2023/03/04 09:46:03;;;;;;;2.05;1.85;;;16.10;44.80;;;;;;4930142;28;45474;-59
2023/03/04 09:48:32;;;;;;;2.70;1.90;;;16.10;44.80;;;;;;4944988;28;46476;-54
2023/03/04 09:51:27;;;;;;;2.00;1.80;;;16.10;44.80;;;;;;4932996;28;45809;-56
2023/03/04 09:54:04;;;;;;;2.10;1.90;;;16.10;44.80;;;;;;4905372;28;45427;-56
2023/03/04 09:56:30;;;;;;;2.20;2.00;;;16.10;44.80;;;;;;4948913;28;45375;-57
2023/03/04 09:59:08;;;;;;;2.00;1.80;;;16.10;44.80;;;;;;4935886;28;45527;-58
2023/03/04 10:01:35;;;;;;;2.30;2.10;;;16.10;44.80;;;;;;4950614;28;45634;-56
2023/03/04 10:04:11;;;;;;;2.20;2.00;;;16.10;44.90;;;;;;4962809;28;44865;-58
2023/03/04 10:06:36;;;;;;;1.87;1.77;;;16.10;44.80;;;;;;4934821;28;45505;-58
2023/03/04 10:09:25;;;;;;;2.08;1.88;;;16.10;44.80;;;;;;4920400;28;45706;-56
2023/03/04 10:12:00;;;;;;;2.40;2.13;;;16.00;44.80;;;;;;4931530;28;46582;-54
2023/03/04 10:14:32;;;;;;;2.57;2.20;;;16.00;44.80;;;;;;4946750;28;45213;-59
2023/03/04 10:17:08;;;;;;;2.47;2.07;;;16.00;44.80;;;;;;4947760;28;45353;-58
2023/03/04 10:19:57;;;;;;;2.17;1.98;;;16.10;44.80;;;;;;4948080;28;45389;-57
2023/03/04 10:22:26;;;;;;;2.17;1.98;;;16.10;44.70;;;;;;4925347;28;46372;-56
2023/03/04 10:24:54;;;;;;;1.90;1.80;;;16.10;44.80;;;;;;4961848;28;45042;-60
2023/03/04 10:27:19;;;;;;;2.00;1.77;;;16.10;44.80;;;;;;4933086;28;45637;-59
2023/03/04 10:29:45;;;;;;;2.13;1.92;;;16.10;44.70;;;;;;4962855;28;45461;-55
2023/03/04 10:32:13;;;;;;;1.70;1.60;;;16.00;44.70;;;;;;4961955;28;45462;-59
2023/03/04 10:34:38;;;;;;;2.00;1.80;;;16.10;44.80;;;;;;4948535;28;45203;-56
2023/03/04 10:37:06;;;;;;;2.00;1.80;;;16.10;44.70;;;;;;4964057;28;45056;-55
2023/03/04 10:39:42;;;;;;;2.35;1.95;;;16.00;44.70;;;;;;4935661;28;45693;-60
2023/03/04 10:42:14;;;;;;;2.25;2.00;;;16.00;44.70;;;;;;4951694;28;45256;-56
2023/03/04 10:44:51;;;;;;;2.13;1.92;;;16.10;44.70;;;;;;4963320;28;44873;-56
2023/03/04 10:47:16;;;;;;;2.30;2.00;;;16.10;44.70;;;;;;4946042;28;45547;-55
2023/03/04 10:49:55;;;;;;;2.20;2.00;;;16.00;44.60;;;;;;4965434;28;45114;-58
2023/03/04 10:52:31;;;;;;;2.55;2.08;;;16.00;44.60;;;;;;4933951;28;46124;-56
2023/03/04 10:54:58;;;;;;;2.22;1.98;;;16.10;44.60;;;;;;4946371;28;45602;-63
2023/03/04 10:57:37;;;;;;;2.30;2.10;;;16.00;44.50;;;;;;4919739;28;46101;-62
2023/03/04 11:00:35;;;;;;;1.95;1.73;;;16.00;44.50;;;;;;4932463;28;44808;-57
2023/03/04 11:03:26;;;;;;;2.25;2.00;;;16.00;44.60;;;;;;4959765;28;45361;-58
2023/03/04 11:06:02;;;;;;;2.08;1.88;;;16.10;44.60;;;;;;4949883;28;45611;-57
2023/03/04 11:08:28;;;;;;;2.33;2.13;;;16.10;44.60;;;;;;4962781;28;45593;-58
2023/03/04 11:10:53;;;;;;;2.00;1.80;;;16.10;44.60;;;;;;4931008;28;45567;-57
2023/03/04 11:13:21;;;;;;;1.97;1.77;;;16.10;44.60;;;;;;4932794;28;46390;-59
2023/03/04 11:15:53;;;;;;;2.00;1.80;;;16.00;44.60;;;;;;4946383;28;45450;-56
2023/03/04 11:18:32;;;;;;;2.20;1.90;;;16.00;44.60;;;;;;4933029;28;45352;-59
2023/03/04 11:20:58;;;;;;;1.88;1.77;;;16.00;44.60;;;;;;4931571;28;45449;-57
2023/03/04 11:23:38;;;;;;;2.03;1.83;;;16.00;44.50;;;;;;4909708;28;45591;-57
2023/03/04 11:26:12;;;;;;;1.63;1.53;;;16.00;44.50;;;;;;4961262;28;46689;-59
2023/03/04 11:28:59;;;;;;;1.90;1.70;;;16.00;44.50;;;;;;4924593;28;45058;-60
2023/03/04 11:31:37;;;;;;;1.73;1.63;;;16.00;44.60;;;;;;4921851;28;45803;-58
2023/03/04 11:34:43;;;;;;;2.35;1.83;;;16.00;44.50;;;;;;4945049;28;45563;-58
2023/03/04 11:37:20;;;;;;;2.30;1.97;;;16.00;44.60;;;;;;4952042;28;45613;-53
2023/03/04 11:39:53;;;;;;;1.95;1.75;;;16.00;44.50;;;;;;4928532;28;45744;-58
2023/03/04 11:42:35;;;;;;;2.20;2.00;;;16.00;44.50;;;;;;4948365;28;45505;-61
2023/03/04 11:45:01;;;;;;;1.98;1.77;;;16.00;44.60;;;;;;4950844;28;46712;-57
2023/03/04 11:48:07;;;;;;;1.73;1.63;;;16.00;44.50;;;;;;4934707;28;45757;-58
2023/03/04 11:50:52;;;;;;;1.92;1.73;;;16.00;44.50;;;;;;4947315;28;46540;-58
2023/03/04 11:53:42;;;;;;;1.63;1.52;;;16.00;44.50;;;;;;4930208;28;46056;-55
2023/03/04 11:56:42;;;;;;;1.92;1.67;;;15.90;44.50;;;;;;4950323;28;45281;-56
2023/03/04 11:59:29;;;;;;;2.00;1.80;;;15.90;44.50;;;;;;4947992;28;45249;-56
2023/03/04 12:02:18;;;;;;;1.83;1.73;;;15.90;44.50;;;;;;4942669;28;45708;-59
2023/03/04 12:04:48;;;;;;;3.08;1.85;;;15.90;44.50;;;;;;4932746;28;44966;-55
2023/03/04 12:07:41;;;;;;;2.67;1.73;;;15.90;44.50;;;;;;4950667;28;45770;-58
2023/03/04 12:10:27;;;;;;;1.80;1.60;;;15.90;44.40;;;;;;4946317;28;45393;-57
2023/03/04 12:13:11;;;;;;;1.77;1.67;;;15.90;44.50;;;;;;4949830;28;45247;-54
2023/03/04 12:15:47;;;;;;;1.77;1.67;;;16.00;44.50;;;;;;4951629;28;45251;-59
2023/03/04 12:18:20;;;;;;;2.30;1.67;;;15.90;44.40;;;;;;4927599;28;45394;-56
2023/03/04 12:21:01;;;;;;;1.95;1.75;;;15.90;44.50;;;;;;4934980;28;46125;-59
2023/03/04 12:23:42;;;;;;;1.98;1.73;;;15.90;44.50;;;;;;4948293;28;46295;-57
2023/03/04 12:26:27;;;;;;;2.13;1.90;;;15.90;44.50;;;;;;4944613;28;45655;-57
2023/03/04 12:29:15;;;;;;;2.25;2.00;;;15.90;44.50;;;;;;4963663;28;47312;-56
2023/03/04 12:31:42;;;;;;;2.30;1.70;;;15.90;44.50;;;;;;4910817;28;46049;-54
2023/03/04 12:34:22;;;;;;;2.03;1.73;;;15.90;44.50;;;;;;4917183;28;45342;-57
2023/03/04 12:37:27;;;;;;;2.40;1.90;;;15.90;44.50;;;;;;4945566;28;45818;-54
2023/03/04 12:40:23;;;;;;;1.90;1.75;;;15.90;44.50;;;;;;4947779;28;45214;-58
2023/03/04 12:43:14;;;;;;;2.00;1.80;;;15.90;44.50;;;;;;4949213;28;45389;-62
2023/03/04 12:45:51;;;;;;;2.40;1.95;;;15.90;44.50;;;;;;4949780;28;46012;-57
2023/03/04 12:48:21;;;;;;;1.98;1.65;;;15.90;44.40;;;;;;4946169;28;45353;-60
2023/03/04 12:51:12;;;;;;;1.85;1.70;;;15.90;44.50;;;;;;4935734;28;45703;-58
2023/03/04 12:53:59;;;;;;;1.90;1.70;;;15.90;44.50;;;;;;4947230;28;46591;-56
2023/03/04 12:56:53;;;;;;;1.98;1.80;;;15.90;44.50;;;;;;4951847;28;45287;-59
2023/03/04 12:59:19;;;;;;;1.90;1.70;;;15.90;44.50;;;;;;4932640;28;45454;-60
2023/03/04 13:01:48;;;;;;;2.27;1.70;;;15.90;44.40;;;;;;4918017;28;46258;-57
2023/03/04 13:04:28;;;;;;;1.65;1.50;;;15.90;44.50;;;;;;4930982;28;45615;-59
2023/03/04 13:07:19;;;;;;;2.10;1.90;;;15.90;44.50;;;;;;4920222;28;45525;-61
2023/03/04 13:10:00;;;;;;;2.00;1.63;;;15.90;44.50;;;;;;4934738;28;45738;-57
2023/03/04 13:12:25;;;;;;;2.15;1.70;;;15.90;44.50;;;;;;4940152;28;46954;-56
2023/03/04 13:15:06;;;;;;;1.90;1.70;;;15.90;44.50;;;;;;4940032;28;45489;-56
2023/03/04 13:17:42;;;;;;;2.00;1.80;;;15.80;44.40;;;;;;4939717;28;45425;-55
2023/03/04 13:20:10;;;;;;;2.10;1.70;;;15.90;44.50;;;;;;4923734;28;45336;-56
2023/03/04 13:22:39;;;;;;;2.33;1.73;;;15.90;44.50;;;;;;4937066;28;44977;-56
2023/03/04 13:25:26;;;;;;;3.30;1.70;;;15.90;44.40;;;;;;4939535;28;45605;-59
2023/03/04 13:28:14;;;;;;;1.70;1.40;;;15.90;44.50;;;;;;4937985;28;44682;-60
2023/03/04 13:30:55;;;;;;;2.40;1.80;;;15.90;44.40;;;;;;4937884;28;45489;-58
2023/03/04 13:33:21;;;;;;;2.10;1.90;;;15.90;44.40;;;;;;4938664;28;46631;-55
2023/03/04 13:36:00;;;;;;;2.00;1.80;;;15.80;44.40;;;;;;4943382;28;45013;-59
2023/03/04 13:38:38;;;;;;;2.00;1.80;;;15.80;44.40;;;;;;4942505;28;45235;-56
2023/03/04 13:41:18;;;;;;;2.00;1.70;;;15.90;44.50;;;;;;4943146;28;45591;-56
2023/03/04 13:43:53;;;;;;;1.65;1.50;;;15.80;44.40;;;;;;4943489;28;45601;-57
2023/03/04 13:46:19;;;;;;;2.28;2.08;;;15.80;44.40;;;;;;4943449;28;45361;-58
2023/03/04 13:48:50;;;;;;;1.90;1.70;;;15.80;44.40;;;;;;4944684;28;45153;-60
2023/03/04 13:51:43;;;;;;;1.85;1.50;;;15.80;44.40;;;;;;4942854;28;45615;-57
2023/03/04 13:54:18;;;;;;;2.90;1.80;;;15.80;44.40;;;;;;4928376;28;45648;-57
2023/03/04 13:56:47;;;;;;;2.30;1.55;;;15.80;44.40;;;;;;4945912;28;44787;-54
2023/03/04 13:59:43;;;;;;;1.73;1.52;;;15.80;44.30;;;;;;4946645;28;45584;-55
2023/03/04 14:02:21;;;;;;;2.00;1.80;;;15.90;44.40;;;;;;4939124;28;45411;-59
2023/03/04 14:04:56;;;;;;;2.40;1.80;;;15.80;44.40;;;;;;4952933;28;48049;-58
2023/03/04 14:07:22;;;;;;;1.85;1.55;;;15.90;44.50;;;;;;4916014;28;45409;-59
2023/03/04 14:09:58;;;;;;;2.87;1.80;;;15.90;44.40;;;;;;4952890;28;45570;-56
2023/03/04 14:12:25;;;;;;;1.70;1.52;;;15.90;44.40;;;;;;4950063;28;45741;-54
2023/03/04 14:14:52;;;;;;;1.80;1.60;;;15.90;44.40;;;;;;4935682;28;46840;-60
2023/03/04 14:17:29;;;;;;;2.38;1.70;;;15.90;44.40;;;;;;4949889;28;45381;-59
2023/03/04 14:19:55;;;;;;;2.78;1.70;;;15.90;44.40;;;;;;4945399;28;45439;-61
2023/03/04 14:22:30;;;;;;;2.20;1.60;;;15.90;44.40;;;;;;4930787;28;45432;-59
2023/03/04 14:25:12;;;;;;;3.05;1.50;;;15.90;44.40;;;;;;4947242;28;46717;-58
2023/03/04 14:27:38;;;;;;;2.40;1.50;;;15.90;44.40;;;;;;4949358;28;45313;-59
2023/03/04 14:30:06;;;;;;;1.90;1.70;;;16.00;44.40;;;;;;4930961;28;46021;-58
2023/03/04 14:32:32;;;;;;;2.13;1.77;;;16.00;44.40;;;;;;4947030;28;46240;-60
2023/03/04 14:35:05;;;;;;;2.00;1.60;;;16.00;44.50;;;;;;4949032;28;46740;-62
2023/03/04 14:37:47;;;;;;;1.53;1.43;;;15.90;44.40;;;;;;4934334;28;45546;-57
2023/03/04 14:40:19;;;;;;;1.90;1.50;;;15.90;44.40;;;;;;4947238;28;44774;-59
2023/03/04 14:42:45;;;;;;;1.83;1.63;;;15.90;44.50;;;;;;4949839;28;45914;-59
2023/03/04 14:45:12;;;;;;;1.48;1.35;;;15.90;44.40;;;;;;4947757;28;47189;-56
2023/03/04 14:47:39;;;;;;;2.33;1.60;;;15.90;44.50;;;;;;4935641;28;44900;-56
2023/03/04 14:50:06;;;;;;;1.65;1.55;;;15.90;44.50;;;;;;4949800;28;45477;-56
2023/03/04 14:52:39;;;;;;;2.22;1.67;;;15.90;44.50;;;;;;4927717;28;45292;-56
2023/03/04 14:55:13;;;;;;;1.88;1.40;;;15.90;44.50;;;;;;4948161;28;45291;-56
2023/03/04 14:57:39;;;;;;;2.58;1.50;;;15.90;44.50;;;;;;4950486;28;45195;-58
2023/03/04 15:00:28;;;;;;;1.75;1.50;;;15.90;44.50;;;;;;4948765;28;45254;-59
2023/03/04 15:02:55;;;;;;;2.10;1.80;;;15.90;44.50;;;;;;4924418;28;47027;-56
2023/03/04 15:05:26;;;;;;;1.70;1.60;;;15.90;44.50;;;;;;4923988;28;45405;-57
2023/03/04 15:07:56;;;;;;;2.17;1.60;;;15.90;44.50;;;;;;4925208;28;45057;-58
2023/03/04 15:10:24;;;;;;;1.48;1.38;;;15.90;44.50;;;;;;4907824;28;45204;-58
2023/03/04 15:12:51;;;;;;;1.67;1.40;;;15.90;44.50;;;;;;4925913;28;47054;-59
2023/03/04 15:15:40;;;;;;;2.30;1.45;;;15.90;44.50;;;;;;4908397;28;45565;-58
2023/03/04 15:18:26;;;;;;;2.10;1.40;;;15.90;44.50;;;;;;4920057;28;45748;-58
2023/03/04 15:20:57;;;;;;;1.87;1.47;;;15.90;44.50;;;;;;4935339;28;46077;-59
2023/03/04 15:23:22;;;;;;;1.90;1.40;;;15.90;44.50;;;;;;4924134;28;45483;-58
2023/03/04 15:25:55;;;;;;;1.67;1.45;;;15.90;44.50;;;;;;4925431;28;46276;-56
2023/03/04 15:28:21;;;;;;;1.50;1.40;;;15.90;44.50;;;;;;4925397;28;44843;-58
2023/03/04 15:30:46;;;;;;;1.80;1.50;;;15.90;44.50;;;;;;4921908;28;45461;-60
2023/03/04 15:33:12;;;;;;;1.60;1.50;;;15.80;44.40;;;;;;4920629;28;45705;-65
2023/03/04 15:35:38;;;;;;;1.50;1.40;;;15.80;44.40;;;;;;4878946;28;46603;-57
2023/03/04 15:38:10;;;;;;;1.77;1.50;;;15.80;44.40;;;;;;4921726;28;45347;-61
2023/03/04 15:40:41;;;;;;;1.85;1.40;;;15.80;44.40;;;;;;4907158;28;44779;-57
2023/03/04 15:43:08;;;;;;;1.50;1.40;;;15.80;44.40;;;;;;4907489;28;45323;-58
2023/03/04 15:45:37;;;;;;;1.80;1.70;;;15.80;44.40;;;;;;4920472;28;46220;-57
2023/03/04 15:48:06;;;;;;;1.40;1.30;;;15.80;44.50;;;;;;4926251;28;46051;-59
2023/03/04 15:50:32;;;;;;;1.98;1.55;;;15.80;44.50;;;;;;4936873;28;45644;-55
2023/03/04 15:53:01;;;;;;;1.88;1.58;;;15.80;44.50;;;;;;4910936;28;45265;-54
2023/03/04 15:55:26;;;;;;;2.10;1.60;;;15.80;44.50;;;;;;4906277;28;45800;-58
2023/03/04 15:57:53;;;;;;;2.30;1.50;;;15.80;44.50;;;;;;4935677;28;45808;-61
2023/03/04 16:00:19;;;;;;;2.13;1.58;;;15.80;44.50;;;;;;4920888;28;45367;-63
2023/03/04 16:02:45;;;;;;;1.60;1.50;;;15.70;44.40;;;;;;4925815;28;45467;-54
2023/03/04 16:05:10;;;;;;;2.25;1.60;;;15.80;44.50;;;;;;4939599;28;45112;-57
2023/03/04 16:07:37;;;;;;;1.87;1.40;;;15.80;44.50;;;;;;4938605;28;44772;-56
2023/03/04 16:10:06;;;;;;;1.55;1.45;;;15.70;44.50;;;;;;4928281;28;44970;-57
2023/03/04 16:12:31;;;;;;;2.17;1.70;;;15.70;44.50;;;;;;4922098;28;45663;-57
2023/03/04 16:14:57;;;;;;;1.63;1.50;;;15.70;44.50;;;;;;4937179;28;45574;-55
2023/03/04 16:17:22;;;;;;;1.50;1.30;;;15.70;44.50;;;;;;4906241;28;45280;-55
2023/03/04 16:19:48;;;;;;;1.97;1.50;;;15.70;44.50;;;;;;4938870;28;45376;-59
2023/03/04 16:22:14;;;;;;;1.50;1.40;;;15.70;44.50;;;;;;4923917;28;45570;-59
2023/03/04 16:24:40;;;;;;;1.70;1.50;;;15.70;44.50;;;;;;4926559;28;45976;-58
2023/03/04 16:27:10;;;;;;;1.60;1.50;;;15.70;44.50;;;;;;4924991;28;45518;-60
2023/03/04 16:29:35;;;;;;;1.73;1.50;;;15.70;44.60;;;;;;4937433;28;45262;-59
2023/03/04 16:32:01;;;;;;;1.53;1.43;;;15.70;44.60;;;;;;4942121;28;45661;-59
2023/03/04 16:34:26;;;;;;;1.70;1.60;;;15.70;44.60;;;;;;4938991;28;47047;-56
2023/03/04 16:36:52;;;;;;;1.80;1.50;;;15.70;44.60;;;;;;4937919;28;45699;-56
2023/03/04 16:39:22;;;;;;;2.03;1.60;;;15.60;44.50;;;;;;4941078;28;45584;-58
2023/03/04 16:41:48;;;;;;;1.87;1.47;;;15.60;44.60;;;;;;4938764;28;45214;-57
2023/03/04 16:44:13;;;;;;;2.10;1.63;;;15.70;44.60;;;;;;4940404;28;45169;-58
2023/03/04 16:46:39;;;;;;;1.87;1.67;;;15.60;44.60;;;;;;4939956;28;44911;-59
2023/03/04 16:49:05;;;;;;;1.42;1.30;;;15.60;44.60;;;;;;4921671;28;45301;-58
2023/03/04 16:51:30;;;;;;;1.70;1.47;;;15.60;44.60;;;;;;4940145;28;44923;-56
2023/03/04 16:53:58;;;;;;;1.40;1.30;;;15.60;44.60;;;;;;4924094;28;45474;-58
2023/03/04 16:56:24;;;;;;;1.80;1.58;;;15.60;44.60;;;;;;4940861;28;44882;-57
2023/03/04 16:58:49;;;;;;;1.70;1.33;;;15.60;44.60;;;;;;4937405;28;45620;-61
2023/03/04 17:01:20;;;;;;;1.88;1.40;;;15.60;44.60;;;;;;4943798;28;45828;-56
2023/03/04 17:03:45;;;;;;;1.60;1.50;;;15.60;44.60;;;;;;4945979;28;47260;-56
2023/03/04 17:06:11;;;;;;;1.67;1.50;;;15.60;44.60;;;;;;4958403;28;45638;-60